createdAt,value
2019-05-20T00:00:56.943Z,99914.61
2019-05-20T00:03:29.770Z,99908.06
2019-05-20T00:06:02.924Z,99904.60
2019-05-20T00:08:35.044Z,99895.91
2019-05-20T00:11:07.656Z,99896.46
2019-05-20T00:13:39.886Z,99902.76
2019-05-20T00:16:11.948Z,99898.52
2019-05-20T00:18:44.113Z,99892.92
2019-05-20T00:21:16.178Z,99901.33
2019-05-20T00:23:48.692Z,99910.63
2019-05-20T00:26:22.589Z,99910.54
2019-05-20T00:28:57.201Z,99902.08
2019-05-20T00:31:29.255Z,99894.45
2019-05-20T00:34:01.295Z,99889.78
2019-05-20T00:36:33.347Z,99887.95
2019-05-20T00:39:20.144Z,99882.34
2019-05-20T00:41:52.362Z,99883.75
2019-05-20T00:44:24.435Z,99877.09
2019-05-20T00:46:56.617Z,99882.69
2019-05-20T00:49:30.293Z,99885.67
2019-05-20T00:52:03.288Z,99884.37
2019-05-20T00:54:35.467Z,99873.41
2019-05-20T00:57:07.597Z,99871.80
2019-05-20T00:59:39.999Z,99876.69
2019-05-20T01:02:12.013Z,99875.95
2019-05-20T01:04:44.016Z,99876.70
2019-05-20T01:07:16.026Z,99880.38
2019-05-20T01:09:48.054Z,99871.27
2019-05-20T01:12:20.230Z,99879.81
2019-05-20T01:14:52.312Z,99874.70
2019-05-20T01:17:24.386Z,99876.06
2019-05-20T01:19:56.729Z,99878.64
2019-05-20T01:22:29.759Z,99873.91
2019-05-20T01:25:03.233Z,99868.63
2019-05-20T01:27:35.274Z,99881.75
2019-05-20T01:30:07.643Z,99882.06
2019-05-20T01:32:39.661Z,99871.95
2019-05-20T01:35:11.888Z,99876.96
2019-05-20T01:37:44.445Z,99874.75
2019-05-20T01:40:17.179Z,99875.53
2019-05-20T01:42:49.200Z,99878.98
2019-05-20T01:45:21.280Z,99869.16
2019-05-20T01:47:53.317Z,99860.15
2019-05-20T01:50:25.336Z,99864.19
2019-05-20T01:52:57.448Z,99858.75
2019-05-20T01:55:29.421Z,99858.25
2019-05-20T01:58:02.922Z,99855.42
2019-05-20T02:00:35.013Z,99859.93
2019-05-20T02:03:07.436Z,99855.17
2019-05-20T02:05:39.516Z,99855.58
2019-05-20T02:08:11.525Z,99863.22
2019-05-20T02:10:45.295Z,99857.03
2019-05-20T02:13:17.260Z,99857.75
2019-05-20T02:16:02.832Z,99854.12
2019-05-20T02:18:34.799Z,99846.97
2019-05-20T02:21:07.675Z,99855.86
2019-05-20T02:23:39.742Z,99853.03
2019-05-20T02:26:11.839Z,99847.50
2019-05-20T02:28:43.941Z,99853.41
2019-05-20T02:31:17.679Z,99855.27
2019-05-20T02:33:52.762Z,99853.56
2019-05-20T02:36:24.102Z,99845.42
2019-05-20T02:38:56.252Z,99850.14
2019-05-20T02:41:28.567Z,99842.50
2019-05-20T02:44:02.098Z,99849.98
2019-05-20T02:46:34.176Z,99849.18
2019-05-20T02:49:06.230Z,99849.39
2019-05-20T02:51:38.295Z,99847.31
2019-05-20T02:54:10.323Z,99853.47
2019-05-20T02:56:42.412Z,99848.98
2019-05-20T02:59:14.576Z,99854.05
2019-05-20T03:01:46.638Z,99859.02
2019-05-20T03:04:20.302Z,99850.94
2019-05-20T03:06:52.602Z,99851.48
2019-05-20T03:09:25.109Z,99855.23
2019-05-20T03:11:59.740Z,99853.93
2019-05-20T03:14:32.105Z,99854.22
2019-05-20T03:17:04.067Z,99861.33
2019-05-20T03:19:36.011Z,99857.54
2019-05-20T03:22:11.340Z,99854.52
2019-05-20T03:24:43.310Z,99854.47
2019-05-20T03:27:16.581Z,99856.86
2019-05-20T03:29:49.175Z,99848.45
2019-05-20T03:32:21.180Z,99841.98
2019-05-20T03:34:59.315Z,99849.13
2019-05-20T03:37:26.890Z,99847.31
2019-05-20T03:39:58.923Z,99839.23
2019-05-20T03:42:31.082Z,99840.36
2019-05-20T03:45:03.154Z,99842.20
2019-05-20T03:47:35.587Z,99842.42
2019-05-20T03:50:11.314Z,99836.45
2019-05-20T03:52:43.487Z,99840.95
2019-05-20T03:55:16.787Z,99837.50
2019-05-20T03:57:48.815Z,99834.52
2019-05-20T04:00:25.230Z,99832.67
2019-05-20T04:02:57.180Z,99826.41
2019-05-20T04:05:29.137Z,99823.94
2019-05-20T04:08:02.854Z,99821.50
2019-05-20T04:10:35.371Z,99826.92
2019-05-20T04:13:07.493Z,99837.98
2019-05-20T04:15:39.756Z,99836.30
2019-05-20T04:18:11.881Z,99831.25
2019-05-20T04:20:43.986Z,99829.58
2019-05-20T04:23:24.406Z,99829.16
2019-05-20T04:25:56.461Z,99827.89
2019-05-20T04:28:28.444Z,99823.89
2019-05-20T04:31:01.110Z,99826.16
2019-05-20T04:33:34.563Z,99831.56
2019-05-20T04:36:06.573Z,99836.63
2019-05-20T04:38:38.884Z,99828.47
2019-05-20T04:41:11.114Z,99833.51
2019-05-20T04:43:43.263Z,99827.60
2019-05-20T04:46:15.357Z,99834.17
2019-05-20T04:48:47.906Z,99829.28
2019-05-20T04:51:20.006Z,99833.22
2019-05-20T04:53:52.506Z,99839.61
2019-05-20T04:56:29.025Z,99837.27
2019-05-20T04:58:59.456Z,99838.20
2019-05-20T05:01:31.526Z,99837.55
2019-05-20T05:04:04.256Z,99849.02
2019-05-20T05:06:37.409Z,99844.01
2019-05-20T05:09:09.660Z,99852.46
2019-05-20T05:11:41.829Z,99858.48
2019-05-20T05:14:14.029Z,99848.17
2019-05-20T05:16:46.055Z,99855.33
2019-05-20T05:19:18.189Z,99860.56
2019-05-20T05:21:53.090Z,99872.98
2019-05-20T05:24:25.291Z,99868.88
2019-05-20T05:26:57.425Z,99864.94
2019-05-20T05:29:29.776Z,99873.20
2019-05-20T05:32:03.485Z,99872.99
2019-05-20T05:34:35.902Z,99875.66
2019-05-20T05:37:07.951Z,99875.80
2019-05-20T05:39:40.012Z,99884.22
2019-05-20T05:42:12.067Z,99883.92
2019-05-20T05:44:44.033Z,99889.27
2019-05-20T05:47:16.182Z,99892.70
2019-05-20T05:49:48.165Z,99896.22
2019-05-20T05:52:22.921Z,99893.14
2019-05-20T05:54:53.901Z,99899.81
2019-05-20T05:57:26.472Z,99906.09
2019-05-20T05:59:58.584Z,99908.11
2019-05-20T06:02:30.734Z,99905.53
2019-05-20T06:05:02.828Z,99912.56
2019-05-20T06:07:34.900Z,99916.97
2019-05-20T06:10:09.907Z,99923.02
2019-05-20T06:12:41.916Z,99916.55
2019-05-20T06:15:15.586Z,99915.87
2019-05-20T06:17:48.020Z,99915.45
2019-05-20T06:20:21.054Z,99919.98
2019-05-20T06:22:53.171Z,99924.19
2019-05-20T06:25:25.293Z,99921.48
2019-05-20T06:32:37.947Z,99926.13
2019-05-20T06:36:41.464Z,99927.58
2019-05-20T06:40:14.144Z,99926.03
2019-05-20T06:46:38.705Z,99917.45
2019-05-20T06:49:11.537Z,99913.92
2019-05-20T06:51:51.253Z,99911.42
2019-05-20T06:54:23.385Z,99914.72
2019-05-20T06:56:55.875Z,99920.92
2019-05-20T06:59:27.981Z,99924.96
2019-05-20T07:02:00.020Z,99920.27
2019-05-20T07:04:34.332Z,99920.95
2019-05-20T07:07:19.934Z,99916.89
2019-05-20T07:09:40.203Z,99919.72
2019-05-20T07:12:12.515Z,99921.62
2019-05-20T07:14:47.340Z,99918.17
2019-05-20T07:17:19.492Z,99923.70
2019-05-20T07:19:51.632Z,99929.88
2019-05-20T07:22:24.104Z,99929.27
2019-05-20T07:24:56.252Z,99923.80
2019-05-20T07:27:28.382Z,99933.72
2019-05-20T07:30:00.512Z,99943.16
2019-05-20T07:32:33.039Z,99938.30
2019-05-20T07:35:05.368Z,99938.21
2019-05-20T07:37:39.089Z,99932.75
2019-05-20T07:40:11.533Z,99929.36
2019-05-20T07:42:43.753Z,99937.09
2019-05-20T07:45:16.416Z,99939.61
2019-05-20T07:47:49.160Z,99941.83
2019-05-20T07:50:21.559Z,99938.53
2019-05-20T07:52:55.264Z,99934.89
2019-05-20T07:55:33.148Z,99940.59
2019-05-20T07:58:10.342Z,99943.20
2019-05-20T08:00:42.508Z,99946.19
2019-05-20T08:03:15.246Z,99938.42
2019-05-20T08:05:47.365Z,99940.02
2019-05-20T08:08:20.560Z,99940.48
2019-05-20T08:10:55.259Z,99943.52
2019-05-20T08:13:27.313Z,99936.25
2019-05-20T08:15:59.382Z,99936.55
2019-05-20T08:18:32.018Z,99933.50
2019-05-20T08:21:07.096Z,99932.47
2019-05-20T08:23:39.322Z,99935.81
2019-05-20T08:26:11.596Z,99934.83
2019-05-20T08:28:43.774Z,99939.17
2019-05-20T08:31:15.933Z,99938.72
2019-05-20T08:33:48.124Z,99934.59
2019-05-20T08:36:20.220Z,99928.71
2019-05-20T08:38:52.439Z,99927.68
2019-05-20T08:41:24.645Z,99923.77
2019-05-20T08:43:56.863Z,99926.33
2019-05-20T08:46:29.544Z,99919.86
2019-05-20T08:49:02.013Z,99926.30
2019-05-20T08:51:34.287Z,99928.30
2019-05-20T08:54:07.345Z,99928.33
2019-05-20T08:56:39.496Z,99925.05
2019-05-20T08:59:11.705Z,99921.83
2019-05-20T09:01:43.940Z,99926.05
2019-05-20T09:04:16.131Z,99930.41
2019-05-20T09:06:48.656Z,99932.44
2019-05-20T09:09:21.077Z,99928.62
2019-05-20T09:11:53.199Z,99920.33
2019-05-20T09:14:26.555Z,99922.73
2019-05-20T09:16:58.579Z,99917.57
2019-05-20T09:19:30.637Z,99914.25
2019-05-20T09:22:02.951Z,99918.23
2019-05-20T09:24:35.066Z,99907.56
2019-05-20T09:27:07.920Z,99911.78
2019-05-20T09:29:40.210Z,99911.87
2019-05-20T09:32:12.430Z,99912.20
2019-05-20T09:34:44.671Z,99912.20
2019-05-20T09:37:20.011Z,99919.33
2019-05-20T09:39:53.875Z,99918.63
2019-05-20T09:42:26.130Z,99919.73
2019-05-20T09:45:02.791Z,99919.81
2019-05-20T09:47:32.383Z,99927.88
2019-05-20T09:50:04.891Z,99919.39
2019-05-20T09:52:37.022Z,99923.13
2019-05-20T09:55:09.547Z,99918.09
2019-05-20T09:57:41.653Z,99922.29
2019-05-20T10:00:14.069Z,99910.20
2019-05-20T10:02:46.076Z,99912.02
2019-05-20T10:05:18.179Z,99906.77
2019-05-20T10:07:50.353Z,99907.56
2019-05-20T10:10:22.611Z,99908.17
2019-05-20T10:12:56.298Z,99905.12
2019-05-20T10:15:28.684Z,99914.92
2019-05-20T10:18:00.733Z,99911.16
2019-05-20T10:20:33.022Z,99912.55
2019-05-20T10:23:05.206Z,99910.79
2019-05-20T10:25:37.345Z,99908.61
2019-05-20T10:28:09.679Z,99909.56
2019-05-20T10:30:41.834Z,99906.61
2019-05-20T10:33:15.598Z,99909.13
2019-05-20T10:35:47.663Z,99913.73
2019-05-20T10:38:19.859Z,99907.93
2019-05-20T10:40:53.024Z,99907.41
2019-05-20T10:43:25.199Z,99907.72
2019-05-20T10:45:57.261Z,99904.07
2019-05-20T10:48:29.346Z,99901.95
2019-05-20T10:51:01.349Z,99901.72
2019-05-20T10:53:36.493Z,99904.06
2019-05-20T10:56:08.571Z,99912.11
2019-05-20T10:58:40.839Z,99906.16
2019-05-20T11:01:12.998Z,99907.58
2019-05-20T11:03:45.166Z,99912.27
2019-05-20T11:06:17.315Z,99909.63
2019-05-20T11:08:49.908Z,99912.84
2019-05-20T11:11:23.572Z,99901.13
2019-05-20T11:13:55.754Z,99900.31
2019-05-20T11:16:27.836Z,99900.84
2019-05-20T11:18:59.988Z,99901.94
2019-05-20T11:21:32.042Z,99900.83
2019-05-20T11:24:04.383Z,99907.13
2019-05-20T11:26:36.598Z,99897.34
2019-05-20T11:29:08.955Z,99902.52
2019-05-20T11:31:41.053Z,99911.05
2019-05-20T11:34:13.184Z,99895.52
2019-05-20T11:36:45.375Z,99897.45
2019-05-20T11:39:32.357Z,99897.28
2019-05-20T11:41:53.900Z,99893.43
2019-05-20T11:44:25.596Z,99895.42
2019-05-20T11:46:59.451Z,99889.81
2019-05-20T11:49:32.198Z,99888.26
2019-05-20T11:52:04.473Z,99890.88
2019-05-20T11:54:37.744Z,99889.73
2019-05-20T11:57:09.764Z,99891.28
2019-05-20T11:59:41.817Z,99885.64
2019-05-20T12:02:14.080Z,99884.97
2019-05-20T12:04:46.489Z,99890.05
2019-05-20T12:07:18.537Z,99889.28
2019-05-20T12:09:53.835Z,99884.38
2019-05-20T12:12:25.926Z,99887.16
2019-05-20T12:14:57.946Z,99892.77
2019-05-20T12:17:30.428Z,99892.17
2019-05-20T12:20:04.355Z,99890.92
2019-05-20T12:22:37.257Z,99890.46
2019-05-20T12:25:11.528Z,99880.67
2019-05-20T12:27:43.603Z,99873.93
2019-05-20T12:30:16.301Z,99870.91
2019-05-20T12:33:16.689Z,99870.11
2019-05-20T12:35:25.488Z,99863.41
2019-05-20T12:37:57.530Z,99870.85
2019-05-20T12:40:29.598Z,99878.02
2019-05-20T12:43:01.696Z,99875.14
2019-05-20T12:45:33.851Z,99867.69
2019-05-20T12:48:10.333Z,99869.69
2019-05-20T12:50:43.592Z,99867.92
2019-05-20T12:53:17.910Z,99870.80
2019-05-20T12:59:57.631Z,99869.67
2019-05-20T13:03:40.248Z,99872.84
2019-05-20T13:11:10.827Z,99867.62
2019-05-20T13:52:27.773Z,99845.53
2019-05-20T13:54:49.870Z,99849.03
2019-05-20T13:56:53.402Z,99845.19
2019-05-20T14:00:07.698Z,99843.08
2019-05-20T14:03:52.311Z,99831.64
2019-05-20T14:07:00.313Z,99830.11
2019-05-20T14:10:14.897Z,99839.95
2019-05-20T14:13:16.241Z,99843.91
2019-05-20T14:16:09.195Z,99843.11
2019-05-20T14:22:23.861Z,99848.48
2019-05-20T14:28:52.594Z,99837.79
2019-05-20T14:39:13.135Z,99764.83
2019-05-20T14:42:25.393Z,99833.44
2019-05-20T14:45:55.546Z,99827.21
2019-05-20T14:49:15.743Z,99831.64
2019-05-20T14:55:51.102Z,99835.61
2019-05-20T14:58:23.101Z,99828.57
2019-05-20T15:00:55.166Z,99829.38
2019-05-20T15:03:28.176Z,99827.85
2019-05-20T15:06:00.370Z,99835.05
2019-05-20T15:08:34.994Z,99827.97
2019-05-20T15:11:08.417Z,99824.69
2019-05-20T15:13:41.693Z,99829.58
2019-05-20T15:16:13.619Z,99826.31
2019-05-20T15:18:46.297Z,99827.95
2019-05-20T15:21:18.258Z,99828.68
2019-05-20T15:23:53.770Z,99826.05
2019-05-20T15:26:25.741Z,99823.76
2019-05-20T15:28:57.833Z,99824.71
2019-05-20T15:31:29.747Z,99825.45
2019-05-20T15:34:01.973Z,99824.13
2019-05-20T15:36:34.213Z,99823.42
2019-05-20T15:39:07.608Z,99832.74
2019-05-20T15:41:39.656Z,99830.48
2019-05-20T15:44:12.834Z,99825.11
2019-05-20T15:46:45.440Z,99823.02
2019-05-20T15:49:17.387Z,99824.61
2019-05-20T15:51:53.179Z,99826.45
2019-05-20T15:54:25.561Z,99831.21
2019-05-20T15:56:58.924Z,99834.39
2019-05-20T15:59:44.787Z,99831.21
2019-05-20T16:02:05.079Z,99836.40
2019-05-20T16:04:38.228Z,99836.19
2019-05-20T16:07:10.163Z,99829.09
2019-05-20T16:09:42.117Z,99844.14
2019-05-20T16:12:14.088Z,99838.63
2019-05-20T16:14:46.074Z,99833.73
2019-05-20T16:17:18.229Z,99843.16
2019-05-20T16:19:50.191Z,99843.27
2019-05-20T16:22:25.063Z,99847.78
2019-05-20T16:24:57.070Z,99839.70
2019-05-20T16:27:32.518Z,99838.13
2019-05-20T16:30:06.715Z,99844.39
2019-05-20T16:32:38.417Z,99845.12
2019-05-20T16:35:10.646Z,99847.38
2019-05-20T16:37:43.835Z,99845.58
2019-05-20T16:40:16.071Z,99850.13
2019-05-20T16:42:48.167Z,99850.13
2019-05-20T16:45:20.392Z,99858.07
2019-05-20T16:47:56.774Z,99859.94
2019-05-20T16:50:30.342Z,99861.80
2019-05-20T16:53:04.054Z,99857.88
2019-05-20T16:55:35.999Z,99851.06
2019-05-20T16:58:08.160Z,99851.41
2019-05-20T17:00:43.368Z,99852.30
2019-05-20T17:03:15.535Z,99854.50
2019-05-20T17:05:47.740Z,99851.59
2019-05-20T17:08:20.356Z,99856.71
2019-05-20T17:10:52.294Z,99852.96
2019-05-20T17:13:24.412Z,99853.20
2019-05-20T17:15:56.376Z,99855.58
2019-05-20T17:18:28.484Z,99853.43
2019-05-20T17:21:00.464Z,99845.89
2019-05-20T17:23:34.057Z,99846.19
2019-05-20T17:26:06.212Z,99852.93
2019-05-20T17:28:38.205Z,99848.89
2019-05-20T17:31:10.529Z,99852.83
2019-05-20T17:33:42.473Z,99845.91
2019-05-20T17:36:14.671Z,99846.17
2019-05-20T17:38:47.181Z,99841.04
2019-05-20T17:41:19.491Z,99838.30
2019-05-20T17:43:51.453Z,99842.17
2019-05-20T17:46:23.830Z,99842.55
2019-05-20T17:48:55.832Z,99841.27
2019-05-20T17:51:27.810Z,99841.89
2019-05-20T17:53:59.782Z,99847.50
2019-05-20T17:56:32.398Z,99843.98
2019-05-20T17:59:04.416Z,99847.88
2019-05-20T18:01:36.787Z,99843.80
2019-05-20T18:04:08.875Z,99842.90
2019-05-20T18:06:42.250Z,99846.88
2019-05-20T18:09:14.252Z,99854.69
2019-05-20T18:11:46.378Z,99856.84
2019-05-20T18:14:18.957Z,99853.52
2019-05-20T18:16:51.133Z,99862.17
2019-05-20T18:19:24.169Z,99860.36
2019-05-20T18:21:56.299Z,99862.92
2019-05-20T18:24:28.219Z,99864.91
2019-05-20T18:27:04.255Z,99866.58
2019-05-20T18:29:36.199Z,99865.46
2019-05-20T18:32:08.106Z,99864.30
2019-05-20T18:34:40.552Z,99869.67
2019-05-20T18:37:12.754Z,99870.38
2019-05-20T18:39:44.679Z,99863.39
2019-05-20T18:42:17.743Z,99866.73
2019-05-20T18:44:49.610Z,99873.52
2019-05-20T18:47:21.618Z,99867.44
2019-05-20T18:49:57.306Z,99864.00
2019-05-20T18:52:29.307Z,99865.03
2019-05-20T18:55:01.279Z,99866.17
2019-05-20T18:57:35.362Z,99868.86
2019-05-20T19:00:08.897Z,99865.56
2019-05-20T19:02:43.098Z,99869.53
2019-05-20T19:05:15.270Z,99870.52
2019-05-20T19:07:47.313Z,99880.31
2019-05-20T19:10:19.396Z,99877.66
2019-05-20T19:12:53.077Z,99875.69
2019-05-20T19:15:27.301Z,99876.19
2019-05-20T19:17:59.561Z,99878.98
2019-05-20T19:20:33.637Z,99881.95
2019-05-20T19:23:06.547Z,99888.08
2019-05-20T19:25:38.547Z,99895.64
2019-05-20T19:28:10.472Z,99884.89
2019-05-20T19:30:42.526Z,99888.00
2019-05-20T19:33:15.361Z,99899.87
2019-05-20T19:35:48.524Z,99908.72
2019-05-20T19:38:20.560Z,99913.79
2019-05-20T19:40:52.679Z,99914.91
2019-05-20T19:43:24.615Z,99915.20
2019-05-20T19:45:57.085Z,99921.92
2019-05-20T19:48:30.831Z,99932.71
2019-05-20T19:51:02.794Z,99937.13
2019-05-20T19:53:35.166Z,99930.13
2019-05-20T19:56:07.268Z,99935.61
2019-05-20T19:58:41.130Z,99936.92
2019-05-20T20:01:13.165Z,99931.73
2019-05-20T20:03:45.305Z,99937.05
2019-05-20T20:06:17.254Z,99940.70
2019-05-20T20:08:49.198Z,99941.26
2019-05-20T20:11:21.176Z,99941.81
2019-05-20T20:13:53.144Z,99947.35
2019-05-20T20:16:28.523Z,99951.45
2019-05-20T20:19:00.429Z,99959.67
2019-05-20T20:21:33.513Z,99960.09
2019-05-20T20:24:09.503Z,99958.41
2019-05-20T20:26:42.634Z,99961.28
2019-05-20T20:29:14.672Z,99970.17
2019-05-20T20:31:48.093Z,99974.26
2019-05-20T20:34:21.914Z,99972.88
2019-05-20T20:36:54.380Z,99984.30
2019-05-20T20:39:26.527Z,99987.28
2019-05-20T20:41:58.732Z,99987.57
2019-05-20T20:44:31.051Z,99990.78
2019-05-20T20:47:07.263Z,99994.58
2019-05-20T20:49:39.471Z,99999.66
2019-05-20T20:52:11.646Z,100001.23
2019-05-20T20:54:45.455Z,99997.64
2019-05-20T20:57:17.511Z,99997.64
2019-05-20T20:59:52.823Z,99998.70
2019-05-20T21:02:26.146Z,100004.81
2019-05-20T21:05:00.152Z,100007.73
2019-05-20T21:07:34.771Z,100005.45
2019-05-20T21:10:09.256Z,99999.15
2019-05-20T21:12:41.579Z,99997.98
2019-05-20T21:15:14.001Z,100000.52
2019-05-20T21:17:47.513Z,100003.50
2019-05-20T21:20:22.729Z,100006.91
2019-05-20T21:22:54.881Z,100011.12
2019-05-20T21:25:27.219Z,100014.95
2019-05-20T21:28:05.616Z,100022.50
2019-05-20T21:30:44.047Z,100031.14
2019-05-20T21:33:19.310Z,100029.34
2019-05-20T21:35:51.970Z,100019.08
2019-05-20T21:38:31.833Z,100024.06
2019-05-20T21:41:16.027Z,100025.15
2019-05-20T21:43:48.443Z,100026.28
2019-05-20T21:46:21.038Z,100035.68
2019-05-20T21:48:53.458Z,100037.86
2019-05-20T21:51:38.758Z,100038.22
2019-05-20T21:54:31.831Z,100039.75
2019-05-20T21:57:03.958Z,100044.26
2019-05-20T21:59:36.207Z,100044.41
2019-05-20T22:02:08.992Z,100042.05
2019-05-20T22:04:43.365Z,100041.81
2019-05-20T22:07:20.526Z,100041.90
2019-05-20T22:09:53.492Z,100038.13
2019-05-20T22:12:25.613Z,100034.61
2019-05-20T22:14:59.419Z,100032.94
2019-05-20T22:17:31.611Z,100033.11
2019-05-20T22:20:04.979Z,100035.72
2019-05-20T22:22:51.427Z,100038.41
2019-05-20T22:25:23.572Z,99992.58
2019-05-20T22:27:55.737Z,100030.33
2019-05-20T22:30:28.050Z,100026.92
2019-05-20T22:33:00.447Z,100029.20
2019-05-20T22:35:35.715Z,100026.71
2019-05-20T22:38:08.338Z,100030.57
2019-05-20T22:40:45.470Z,100029.31
2019-05-20T22:43:17.561Z,100020.37
2019-05-20T22:45:49.689Z,100026.95
2019-05-20T22:48:23.510Z,100024.44
2019-05-20T22:50:55.758Z,100027.48
2019-05-20T22:53:28.037Z,100026.32
2019-05-20T22:56:00.156Z,100023.59
2019-05-20T22:58:38.680Z,100022.45
2019-05-20T23:01:11.621Z,100023.92
2019-05-20T23:03:56.182Z,100025.08
2019-05-20T23:06:19.355Z,100020.45
2019-05-20T23:08:51.501Z,100028.52
2019-05-20T23:11:28.034Z,100030.30
2019-05-20T23:14:00.126Z,100026.73
2019-05-20T23:16:32.812Z,100027.00
2019-05-20T23:19:05.713Z,100030.25
2019-05-20T23:21:38.805Z,100030.41
2019-05-20T23:24:15.988Z,100027.19
2019-05-20T23:26:47.925Z,100033.28
2019-05-20T23:29:20.068Z,100039.05
2019-05-20T23:31:52.161Z,100029.94
2019-05-20T23:34:24.798Z,100026.50
2019-05-20T23:36:58.435Z,100028.33
2019-05-20T23:39:30.546Z,100029.41
2019-05-20T23:42:03.450Z,100037.06
2019-05-20T23:44:35.543Z,100035.75
2019-05-20T23:47:07.607Z,100036.02
2019-05-20T23:49:39.710Z,100034.87
2019-05-20T23:52:12.290Z,100033.94
2019-05-20T23:54:44.551Z,100036.23
2019-05-20T23:57:16.873Z,100034.80
2019-05-20T23:59:49.323Z,100039.92
